Rainier, WA

1:19 PM PST on January 26, 2015 (GMT -0800)
APRSWXNET Yelm WA US | Change Station
CLOSE
Current Station
Personal Weather Station
Location: Rainier, WA
Elevation: 399 ft
Nearby Weather Stations

Elev 399 ft 46.92 °N, 122.64 °W | Updated 38 minutes ago

Clear
Clear
56 °F
Feels Like 56 °F
N
0
Wind Variable Wind from North
Gusts 0.0 mph

Today
High -- | Low -- °F
--% Chance of Precip.
Yesterday
High -- | Low -- °F
Precip. -- in
7:42 AM 5:04 PM
Waxing Crescent, 47% visible
Pressure 29.94 in
Visibility 10.0 miles
Clouds Clear
Dew Point 53 °F
Humidity 90%
Rainfall -999.00 in
Snow Depth Not available.
UV 2 out of 12
Pollen 3.80 out of 12
Air Quality Not available.
Flu Activity Not available.
METAR KOLM 262054Z 23005KT 10SM CLR 16/08 A2994 RMK AO2 SLP138 T01610083 58009

More Conditions Fewer Conditions

Pressure 29.94 in
Visibility 10.0 miles
Clouds Clear
Dew Point 53 °F
Humidity 90%
Rainfall -999.00 in
Snow Depth Not available.
UV 2 out of 12
Pollen 3.80 out of 12
Air Quality Not available.
Flu Activity Not available.
METAR KOLM 262054Z 23005KT 10SM CLR 16/08 A2994 RMK AO2 SLP138 T01610083 58009

More Conditions Fewer Conditions

10-Day Weather Forecast

Almanac

Astronomy

Jan. 26, 2015 Rise Set
Actual Time
Civil Twilight
Nautical Twilight
Astronomical Twilight
Moon
Length of Visible Light
Length of Day
Tomorrow will be .
, % of the Moon is Illuminated

Today's Extremes

State Highs State Lows

Community

WunderPhotos

Upload Photos

1,790,364 photos uploaded!

WunderBlogs® & News

Nearby

Air Quality

  Air Quality AQ Index Pollutant
Not available.

Snow Depth

Station Depth Elevation

Earthquake Activity

City Distance Mag. Time & Date
Minimum magnitude displayed is 2.5.

Coastal Water Temperatures

Place Temperature

Nearby Weather Stations